Rutland-Southern Vermont Regional Airport

Airport
ICAO code: 
KRUT
Summary
ICAO Region: 
NAM
Territory: 
Location: 
Rutland. Vermont,
Coordinates: 
Aerial View: 
43° 31' 39.864" N, 72° 56' 43.318" W
Airport WX: 
Cumulonimbus
Metar
Observation
KRUT 021456Z AUTO 13012KT 10SM OVC020 03/03 A2966 RMK AO2 SLP047 60000 T00330028 58022 $
Station
Rutland, Rutland State Airport
Date/Time
2021-12-02 14:56:00
Wind direction
130°
Wind speed
12 kts
Lowest cloud amount
overcast
Temperature
3.3°C
Dew point
2.8°C
Humidity
96%
Weather condition
n/a

Description

Rutland–Southern Vermont Regional Airport is a public use airport located 9 km south of the central business district of Rutland, a city in Rutland County, Vermont.

Climatology

Humid Continental climate (Köppen climate classification Dfb) - Variable weather patterns and a large seasonal temperature variance. Summers are often warm and humid with frequent thunderstorms and winters can be very cold with frequent snowfall and persistent snow cover.

Runways

Designator Length Width Surface Rops
13/31 966 23 ASP Yes/Yes
1/19 1524 30 ASP Yes/Yes
Airport map: 
Aerial View: 

SKYbrary Partners:

Safety knowledge contributed by: